createdAt,value
2019-01-25T00:03:09.898Z,99470.74
2019-01-25T00:06:11.596Z,99469.83
2019-01-25T00:09:16.855Z,99468.78
2019-01-25T00:12:22.005Z,99467.77
2019-01-25T00:15:27.344Z,99471.91
2019-01-25T00:18:32.600Z,99468.81
2019-01-25T00:21:37.845Z,99471.52
2019-01-25T00:24:43.868Z,99472.89
2019-01-25T00:27:49.026Z,99474.77
2019-01-25T00:30:54.228Z,99476.42
2019-01-25T00:33:59.361Z,99470.13
2019-01-25T00:37:04.674Z,99470.95
2019-01-25T00:40:12.084Z,99476.93
2019-01-25T00:43:18.755Z,99478.72
2019-01-25T00:46:23.923Z,99477.34
2019-01-25T00:49:29.910Z,99475.75
2019-01-25T00:52:35.041Z,99483.66
2019-01-25T00:55:40.209Z,99485.31
2019-01-25T00:58:45.345Z,99487.33
2019-01-25T01:01:50.542Z,99491.51
2019-01-25T01:04:55.712Z,99490.34
2019-01-25T01:08:00.862Z,99492.88
2019-01-25T01:11:06.040Z,99500.46
2019-01-25T01:14:11.170Z,99499.42
2019-01-25T01:17:16.442Z,99502.36
2019-01-25T01:20:21.958Z,99501.10
2019-01-25T01:23:27.133Z,99505.03
2019-01-25T01:26:32.265Z,99510.36
2019-01-25T01:29:37.431Z,99510.05
2019-01-25T01:32:42.550Z,99514.41
2019-01-25T01:35:53.307Z,99514.53
2019-01-25T01:38:58.397Z,99515.76
2019-01-25T01:42:03.604Z,99517.35
2019-01-25T01:45:08.831Z,99520.42
2019-01-25T01:48:13.953Z,99519.71
2019-01-25T01:51:19.098Z,99519.04
2019-01-25T01:54:24.298Z,99516.41
2019-01-25T01:57:29.447Z,99515.45
2019-01-25T02:00:34.676Z,99515.70
2019-01-25T02:03:39.838Z,99516.25
2019-01-25T02:06:45.079Z,99520.02
2019-01-25T02:09:50.224Z,99511.06
2019-01-25T02:12:55.411Z,99510.48
2019-01-25T02:16:00.515Z,99500.03
2019-01-25T02:19:06.084Z,99507.55
2019-01-25T02:22:11.201Z,99511.84
2019-01-25T02:25:16.599Z,99513.64
2019-01-25T02:28:21.672Z,99508.73
2019-01-25T02:31:26.977Z,99510.20
2019-01-25T02:34:32.173Z,99511.47
2019-01-25T02:37:37.315Z,99516.56
2019-01-25T02:40:42.448Z,99513.55
2019-01-25T02:43:47.594Z,99514.26
2019-01-25T02:46:52.748Z,99511.13
2019-01-25T02:49:57.881Z,99514.38
2019-01-25T02:53:03.933Z,99512.11
2019-01-25T02:56:09.351Z,99509.20
2019-01-25T02:59:14.494Z,99511.70
2019-01-25T03:02:19.578Z,99508.92
2019-01-25T03:05:25.650Z,99507.66
2019-01-25T03:08:30.768Z,99507.88
2019-01-25T03:11:35.936Z,99501.84
2019-01-25T03:14:41.020Z,99504.91
2019-01-25T03:17:47.343Z,99506.34
2019-01-25T03:20:52.498Z,99500.80
2019-01-25T03:23:57.623Z,99504.91
2019-01-25T03:27:02.743Z,99505.95
2019-01-25T03:30:09.639Z,99501.98
2019-01-25T03:33:14.700Z,99510.91
2019-01-25T03:36:19.802Z,99515.09
2019-01-25T03:39:24.970Z,99521.68
2019-01-25T03:42:30.077Z,99512.84
2019-01-25T03:45:35.196Z,99514.38
2019-01-25T03:48:40.282Z,99518.64
2019-01-25T03:51:45.435Z,99521.00
2019-01-25T03:54:50.555Z,99524.81
2019-01-25T03:57:55.669Z,99525.82
2019-01-25T04:01:00.768Z,99518.98
2019-01-25T04:04:06.045Z,99520.05
2019-01-25T04:07:11.151Z,99529.04
2019-01-25T04:10:21.158Z,99530.42
2019-01-25T04:13:26.291Z,99518.52
2019-01-25T04:16:31.342Z,99522.20
2019-01-25T04:19:36.485Z,99525.61
2019-01-25T04:22:41.612Z,99516.28
2019-01-25T04:25:46.748Z,99526.62
2019-01-25T04:28:51.857Z,99529.03
2019-01-25T04:31:56.971Z,99534.47
2019-01-25T04:35:02.078Z,99530.14
2019-01-25T04:38:07.238Z,99533.86
2019-01-25T04:41:12.360Z,99536.80
2019-01-25T04:44:17.569Z,99533.64
2019-01-25T04:47:28.526Z,99539.38
2019-01-25T04:50:33.647Z,99531.95
2019-01-25T04:53:38.856Z,99540.23
2019-01-25T04:56:44.033Z,99538.77
2019-01-25T04:59:49.218Z,99546.36
2019-01-25T05:02:58.958Z,99544.74
2019-01-25T05:06:04.742Z,99543.30
2019-01-25T05:09:10.200Z,99539.13
2019-01-25T05:12:15.360Z,99551.73
2019-01-25T05:15:20.439Z,99546.95
2019-01-25T05:18:25.571Z,99544.70
2019-01-25T05:21:30.714Z,99544.27
2019-01-25T05:24:35.822Z,99547.89
2019-01-25T05:27:40.954Z,99544.30
2019-01-25T05:30:54.680Z,99540.20
2019-01-25T05:33:59.790Z,99544.09
2019-01-25T05:37:09.352Z,99545.20
2019-01-25T05:40:21.016Z,99554.64
2019-01-25T05:43:26.253Z,99555.31
2019-01-25T05:46:31.389Z,99560.37
2019-01-25T05:49:36.606Z,99564.91
2019-01-25T05:52:41.728Z,99556.02
2019-01-25T05:55:46.879Z,99559.52
2019-01-25T05:58:52.048Z,99560.75
2019-01-25T06:01:57.233Z,99560.47
2019-01-25T06:05:02.339Z,99566.13
2019-01-25T06:08:31.975Z,99570.41
2019-01-25T06:11:39.239Z,99573.65
2019-01-25T06:14:44.419Z,99576.95
2019-01-25T06:17:49.559Z,99584.69
2019-01-25T06:20:56.247Z,99593.26
2019-01-25T06:24:01.344Z,99589.08
2019-01-25T06:27:06.476Z,99585.02
2019-01-25T06:30:13.724Z,99585.91
2019-01-25T06:33:18.898Z,99600.07
2019-01-25T06:36:23.972Z,99602.98
2019-01-25T06:39:29.162Z,99599.34
2019-01-25T06:42:34.264Z,99609.64
2019-01-25T06:45:39.421Z,99605.56
2019-01-25T06:48:44.641Z,99611.39
2019-01-25T06:51:49.789Z,99620.80
2019-01-25T06:54:54.909Z,99623.43
2019-01-25T06:58:31.247Z,99622.28
2019-01-25T07:01:55.193Z,99631.50
2019-01-25T07:05:00.450Z,99637.77
2019-01-25T07:08:05.647Z,99647.20
2019-01-25T07:11:10.839Z,99639.23
2019-01-25T07:14:15.977Z,99637.50
2019-01-25T07:17:22.331Z,99635.97
2019-01-25T07:20:27.468Z,99645.41
2019-01-25T07:23:32.646Z,99648.17
2019-01-25T07:26:37.764Z,99648.44
2019-01-25T07:29:42.936Z,99646.19
2019-01-25T07:32:48.098Z,99652.55
2019-01-25T07:35:53.299Z,99650.37
2019-01-25T07:38:58.460Z,99650.73
2019-01-25T07:42:03.641Z,99650.08
2019-01-25T07:45:08.813Z,99644.53
2019-01-25T07:48:13.989Z,99640.13
2019-01-25T07:51:19.300Z,99649.15
2019-01-25T07:54:24.485Z,99645.95
2019-01-25T07:57:29.653Z,99646.07
2019-01-25T08:00:34.796Z,99647.67
2019-01-25T08:03:39.983Z,99646.50
2019-01-25T08:06:45.133Z,99650.86
2019-01-25T08:09:50.315Z,99649.70
2019-01-25T08:12:55.455Z,99652.13
2019-01-25T08:16:00.759Z,99655.80
2019-01-25T08:19:05.921Z,99659.20
2019-01-25T08:22:11.093Z,99655.67
2019-01-25T08:25:16.426Z,99654.91
2019-01-25T08:28:21.571Z,99658.33
2019-01-25T08:31:26.823Z,99655.39
2019-01-25T08:34:31.949Z,99663.47
2019-01-25T08:37:37.096Z,99667.24
2019-01-25T08:40:42.242Z,99664.19
2019-01-25T08:43:47.310Z,99665.21
2019-01-25T08:46:52.507Z,99665.16
2019-01-25T08:49:58.640Z,99652.02
2019-01-25T08:53:03.763Z,99651.41
2019-01-25T08:56:09.126Z,99653.75
2019-01-25T08:59:14.195Z,99659.91
2019-01-25T09:02:24.828Z,99662.66
2019-01-25T09:05:29.983Z,99671.69
2019-01-25T09:08:35.136Z,99665.14
2019-01-25T09:11:40.353Z,99666.96
2019-01-25T09:14:45.471Z,99671.48
2019-01-25T09:17:50.627Z,99679.48
2019-01-25T09:20:55.807Z,99678.37
2019-01-25T09:24:01.010Z,99677.90
2019-01-25T09:27:06.312Z,99679.53
2019-01-25T09:30:14.398Z,99688.63
2019-01-25T09:33:19.607Z,99683.39
2019-01-25T09:36:24.809Z,99690.63
2019-01-25T09:39:29.996Z,99687.31
2019-01-25T09:42:35.183Z,99700.02
2019-01-25T09:45:40.410Z,99700.39
2019-01-25T09:48:45.596Z,99705.23
2019-01-25T09:51:50.726Z,99698.45
2019-01-25T09:54:55.875Z,99699.58
2019-01-25T09:58:03.353Z,99695.80
2019-01-25T10:01:10.454Z,99699.12
2019-01-25T10:04:15.739Z,99693.58
2019-01-25T10:07:20.891Z,99692.17
2019-01-25T10:10:26.038Z,99694.23
2019-01-25T10:13:31.181Z,99691.35
2019-01-25T10:16:36.370Z,99698.17
2019-01-25T10:19:41.522Z,99698.80
2019-01-25T10:22:46.684Z,99691.23
2019-01-25T10:25:51.829Z,99681.52
2019-01-25T10:28:57.074Z,99671.27
2019-01-25T10:32:02.222Z,99669.02
2019-01-25T10:35:09.067Z,99654.38
2019-01-25T10:38:14.311Z,99653.88
2019-01-25T10:41:19.555Z,99656.20
2019-01-25T10:44:24.691Z,99651.31
2019-01-25T10:47:29.866Z,99658.89
2019-01-25T10:50:34.956Z,99661.97
2019-01-25T10:53:40.094Z,99659.70
2019-01-25T10:56:45.333Z,99666.59
2019-01-25T10:59:50.429Z,99665.89
2019-01-25T11:02:58.313Z,99671.42
2019-01-25T11:06:02.381Z,99662.11
2019-01-25T11:09:10.118Z,99661.34
2019-01-25T11:12:15.228Z,99647.83
2019-01-25T11:15:22.060Z,99644.28
2019-01-25T11:18:27.238Z,99650.90
2019-01-25T11:21:37.415Z,99653.13
2019-01-25T11:24:40.222Z,99655.34
2019-01-25T11:27:46.410Z,99654.50
2019-01-25T11:30:51.671Z,99646.33
2019-01-25T11:33:56.830Z,99646.73
2019-01-25T11:37:02.010Z,99646.06
2019-01-25T11:40:15.255Z,99641.97
2019-01-25T11:43:20.435Z,99645.27
2019-01-25T11:46:25.530Z,99644.50
2019-01-25T11:49:30.689Z,99637.78
2019-01-25T11:52:35.796Z,99631.62
2019-01-25T11:55:40.922Z,99646.19
2019-01-25T11:58:46.142Z,99641.39
2019-01-25T12:01:51.259Z,99637.39
2019-01-25T12:04:56.423Z,99643.64
2019-01-25T12:08:01.649Z,99643.74
2019-01-25T12:11:06.848Z,99645.16
2019-01-25T12:14:11.995Z,99654.45
2019-01-25T12:17:17.125Z,99648.45
2019-01-25T12:20:24.462Z,99657.92
2019-01-25T12:23:29.625Z,99653.44
2019-01-25T12:26:34.784Z,99650.28
2019-01-25T12:29:39.922Z,99646.84
2019-01-25T12:32:45.094Z,99639.24
2019-01-25T12:35:50.304Z,99641.99
2019-01-25T12:38:55.542Z,99634.35
2019-01-25T12:42:00.680Z,99629.58
2019-01-25T12:45:07.391Z,99620.00
2019-01-25T12:48:13.631Z,99621.65
2019-01-25T12:51:29.066Z,99637.87
2019-01-25T12:54:35.257Z,99630.15
2019-01-25T12:57:40.452Z,99627.57
2019-01-25T13:00:45.652Z,99621.25
2019-01-25T13:03:50.783Z,99621.17
2019-01-25T13:06:55.891Z,99622.27
2019-01-25T13:10:01.103Z,99618.62
2019-01-25T13:13:07.451Z,99610.31
2019-01-25T13:16:12.595Z,99607.30
2019-01-25T13:19:17.796Z,99615.66
2019-01-25T13:22:23.000Z,99612.74
2019-01-25T13:25:28.139Z,99606.95
2019-01-25T13:28:33.305Z,99609.78
2019-01-25T13:31:38.527Z,99614.22
2019-01-25T13:34:43.697Z,99621.39
2019-01-25T13:37:48.875Z,99615.05
2019-01-25T13:40:54.105Z,99614.83
2019-01-25T13:43:59.251Z,99614.83
2019-01-25T13:47:04.413Z,99616.92
2019-01-25T13:50:12.012Z,99621.80
2019-01-25T13:53:17.143Z,99624.55
2019-01-25T13:56:22.527Z,99624.92
2019-01-25T13:59:27.663Z,99638.02
2019-01-25T14:02:34.165Z,99639.98
2019-01-25T14:05:39.408Z,99628.45
2019-01-25T14:08:44.590Z,99617.92
2019-01-25T14:11:49.737Z,99619.58
2019-01-25T14:14:54.897Z,99618.09
2019-01-25T14:18:00.161Z,99616.47
2019-01-25T14:21:05.612Z,99623.59
2019-01-25T14:24:10.790Z,99612.79
2019-01-25T14:27:15.910Z,99612.77
2019-01-25T14:30:47.645Z,99604.36
2019-01-25T14:33:52.867Z,99606.44
2019-01-25T14:36:58.112Z,99606.47
2019-01-25T14:40:03.280Z,99605.39
2019-01-25T14:43:08.513Z,99605.72
2019-01-25T14:46:13.765Z,99598.13
2019-01-25T14:49:18.926Z,99602.05
2019-01-25T14:52:24.111Z,99608.70
2019-01-25T14:55:29.228Z,99614.58
2019-01-25T14:58:34.427Z,99620.48
2019-01-25T15:01:39.625Z,99625.84
2019-01-25T15:04:44.803Z,99627.59
2019-01-25T15:07:49.947Z,99634.92
2019-01-25T15:10:55.099Z,99621.72
2019-01-25T15:14:02.355Z,99616.09
2019-01-25T15:17:07.178Z,99606.53
2019-01-25T15:20:18.550Z,99612.09
2019-01-25T15:23:24.929Z,99602.31
2019-01-25T15:26:30.046Z,99608.36
2019-01-25T15:29:35.189Z,99607.30
2019-01-25T15:32:41.380Z,99612.28
2019-01-25T15:35:46.619Z,99606.61
2019-01-25T15:38:51.949Z,99613.80
2019-01-25T15:41:57.238Z,99615.55
2019-01-25T15:45:02.371Z,99620.50
2019-01-25T15:48:07.595Z,99619.04
2019-01-25T15:51:12.753Z,99599.78
2019-01-25T15:54:17.930Z,99592.08
2019-01-25T15:57:23.012Z,99587.61
2019-01-25T16:00:29.684Z,99584.77
2019-01-25T16:03:34.901Z,99586.09
2019-01-25T16:06:40.061Z,99593.05
2019-01-25T16:09:45.193Z,99598.47
2019-01-25T16:12:51.065Z,99595.45
2019-01-25T16:15:56.195Z,99610.69
2019-01-25T16:19:01.353Z,99608.89
2019-01-25T16:22:06.504Z,99612.59
2019-01-25T16:25:14.504Z,99610.69
2019-01-25T16:28:19.627Z,99621.22
2019-01-25T16:31:24.749Z,99617.25
2019-01-25T16:34:29.859Z,99624.53
2019-01-25T16:37:35.189Z,99632.91
2019-01-25T16:40:40.375Z,99626.31
2019-01-25T16:43:45.552Z,99621.52
2019-01-25T16:46:50.682Z,99632.64
2019-01-25T16:49:55.832Z,99622.65
2019-01-25T16:53:00.954Z,99632.47
2019-01-25T16:56:06.289Z,99622.35
2019-01-25T16:59:11.406Z,99627.09
2019-01-25T17:02:16.521Z,99629.80
2019-01-25T17:05:21.886Z,99626.87
2019-01-25T17:08:27.173Z,99626.87
2019-01-25T17:11:32.313Z,99623.92
2019-01-25T17:14:37.517Z,99629.91
2019-01-25T17:17:42.907Z,99631.29
2019-01-25T17:20:48.098Z,99634.57
2019-01-25T17:23:53.244Z,99633.44
2019-01-25T17:26:58.381Z,99634.69
2019-01-25T17:30:03.490Z,99632.09
2019-01-25T17:33:08.716Z,99634.02
2019-01-25T17:36:14.025Z,99615.45
2019-01-25T17:39:19.177Z,99602.63
2019-01-25T17:42:24.310Z,99611.59
2019-01-25T17:45:29.451Z,99620.31
2019-01-25T17:48:34.603Z,99620.86
2019-01-25T17:51:39.949Z,99620.53
2019-01-25T17:54:45.149Z,99618.70
2019-01-25T17:57:50.368Z,99619.78
2019-01-25T18:00:57.080Z,99610.16
2019-01-25T18:04:03.539Z,99599.50
2019-01-25T18:07:08.737Z,99592.13
2019-01-25T18:10:16.762Z,99588.05
2019-01-25T18:13:22.095Z,99586.17
2019-01-25T18:16:27.218Z,99597.08
2019-01-25T18:19:32.447Z,99605.35
2019-01-25T18:22:37.669Z,99599.63
2019-01-25T18:25:48.846Z,99593.84
2019-01-25T18:29:13.177Z,99591.57
2019-01-25T18:32:18.417Z,99584.81
2019-01-25T18:35:23.619Z,99587.22
2019-01-25T18:38:28.732Z,99580.90
2019-01-25T18:41:35.385Z,99577.75
2019-01-25T18:44:40.656Z,99581.66
2019-01-25T18:47:45.816Z,99570.56
2019-01-25T18:50:51.135Z,99589.42
2019-01-25T18:53:56.337Z,99587.86
2019-01-25T18:57:01.636Z,99581.16
2019-01-25T19:00:08.785Z,99580.09
2019-01-25T19:03:14.161Z,99581.42
2019-01-25T19:06:19.364Z,99568.41
2019-01-25T19:09:24.571Z,99576.25
2019-01-25T19:12:29.726Z,99578.27
2019-01-25T19:15:34.873Z,99584.19
2019-01-25T19:18:40.064Z,99588.11
2019-01-25T19:21:45.216Z,99581.36
2019-01-25T19:24:50.445Z,99586.71
2019-01-25T19:27:55.698Z,99588.11
2019-01-25T19:31:00.853Z,99582.67
2019-01-25T19:34:06.041Z,99580.28
2019-01-25T19:37:11.251Z,99577.08
2019-01-25T19:40:17.426Z,99584.08
2019-01-25T19:43:22.621Z,99593.92
2019-01-25T19:46:27.819Z,99589.55
2019-01-25T19:49:32.980Z,99577.68
2019-01-25T19:52:38.241Z,99555.16
2019-01-25T19:55:43.569Z,99545.55
2019-01-25T19:58:48.732Z,99546.83
2019-01-25T20:01:53.903Z,99558.06
2019-01-25T20:04:59.114Z,99555.78
2019-01-25T20:08:04.895Z,99551.58
2019-01-25T20:11:10.071Z,99552.06
2019-01-25T20:14:15.281Z,99551.89
2019-01-25T20:17:20.433Z,99537.28
2019-01-25T20:20:27.766Z,99541.84
2019-01-25T20:23:32.912Z,99531.23
2019-01-25T20:26:38.133Z,99540.47
2019-01-25T20:29:43.393Z,99527.98
2019-01-25T20:32:48.672Z,99536.43
2019-01-25T20:35:53.955Z,99529.12
2019-01-25T20:38:59.667Z,99528.09
2019-01-25T20:42:04.888Z,99533.41
2019-01-25T20:45:19.018Z,99521.47
2019-01-25T20:48:24.212Z,99522.80
2019-01-25T20:51:29.408Z,99520.14
2019-01-25T20:54:34.589Z,99518.38
2019-01-25T20:57:39.854Z,99514.41
2019-01-25T21:00:45.315Z,99505.76
2019-01-25T21:03:50.522Z,99506.39
2019-01-25T21:06:55.889Z,99500.41
2019-01-25T21:10:01.032Z,99498.52
2019-01-25T21:13:06.627Z,99495.42
2019-01-25T21:16:11.761Z,99493.34
2019-01-25T21:19:17.079Z,99494.05
2019-01-25T21:22:22.296Z,99492.83
2019-01-25T21:25:27.562Z,99481.23
2019-01-25T21:28:32.759Z,99470.58
2019-01-25T21:31:37.874Z,99468.80
2019-01-25T21:34:44.539Z,99471.12
2019-01-25T21:37:50.098Z,99475.73
2019-01-25T21:40:55.443Z,99463.20
2019-01-25T21:44:00.588Z,99453.53
2019-01-25T21:47:06.072Z,99443.60
2019-01-25T21:50:12.880Z,99440.38
2019-01-25T21:53:18.089Z,99436.72
2019-01-25T21:56:23.264Z,99432.05
2019-01-25T21:59:28.473Z,99430.98
2019-01-25T22:02:33.690Z,99417.48
2019-01-25T22:05:38.811Z,99421.08
2019-01-25T22:08:43.902Z,99414.15
2019-01-25T22:11:49.071Z,99414.72
2019-01-25T22:14:54.205Z,99406.08
2019-01-25T22:17:59.412Z,99403.93
2019-01-25T22:21:04.698Z,99404.92
2019-01-25T22:24:09.917Z,99386.73
2019-01-25T22:27:15.151Z,99388.00
2019-01-25T22:30:21.936Z,99384.39
2019-01-25T22:33:27.071Z,99392.70
2019-01-25T22:36:32.303Z,99377.83
2019-01-25T22:39:37.462Z,99374.67
2019-01-25T22:42:42.644Z,99370.89
2019-01-25T22:45:47.827Z,99374.54
2019-01-25T22:48:52.998Z,99373.48
2019-01-25T22:51:58.230Z,99361.94
2019-01-25T22:55:03.484Z,99364.27
2019-01-25T22:58:08.590Z,99351.66
2019-01-25T23:01:21.225Z,99346.09
2019-01-25T23:05:11.730Z,99345.22
2019-01-25T23:08:17.105Z,99345.04
2019-01-25T23:11:22.294Z,99341.11
2019-01-25T23:14:27.564Z,99330.80
2019-01-25T23:17:32.752Z,99336.91
2019-01-25T23:20:37.886Z,99329.80
2019-01-25T23:23:43.011Z,99328.09
2019-01-25T23:26:48.098Z,99326.59
2019-01-25T23:29:53.268Z,99323.80
2019-01-25T23:32:58.490Z,99322.66
2019-01-25T23:36:03.998Z,99314.41
2019-01-25T23:39:10.973Z,99304.62
2019-01-25T23:42:16.338Z,99302.84
2019-01-25T23:45:21.567Z,99299.05
2019-01-25T23:48:26.696Z,99297.69
2019-01-25T23:51:31.854Z,99298.81
2019-01-25T23:54:36.951Z,99290.54
2019-01-25T23:57:42.103Z,99295.12
